sensor_id;sensor_type;location;lat;lon;timestamp;P1;durP1;ratioP1;P2;durP2;ratioP2
6755;SDS011;3415;51.148;7.014;2023-05-02T00:00:19;17.13;;;10.30;;
6755;SDS011;3415;51.148;7.014;2023-05-02T00:02:46;14.53;;;10.70;;
6755;SDS011;3415;51.148;7.014;2023-05-02T00:05:13;16.50;;;11.20;;
6755;SDS011;3415;51.148;7.014;2023-05-02T00:07:40;17.63;;;11.03;;
6755;SDS011;3415;51.148;7.014;2023-05-02T00:10:07;15.17;;;10.57;;
6755;SDS011;3415;51.148;7.014;2023-05-02T00:12:36;14.70;;;10.10;;
6755;SDS011;3415;51.148;7.014;2023-05-02T00:15:03;16.10;;;10.67;;
6755;SDS011;3415;51.148;7.014;2023-05-02T00:17:31;20.00;;;12.00;;
6755;SDS011;3415;51.148;7.014;2023-05-02T00:19:58;19.70;;;11.13;;
6755;SDS011;3415;51.148;7.014;2023-05-02T00:22:24;15.60;;;10.00;;
6755;SDS011;3415;51.148;7.014;2023-05-02T00:24:54;16.20;;;10.00;;
6755;SDS011;3415;51.148;7.014;2023-05-02T00:27:22;17.40;;;10.60;;
6755;SDS011;3415;51.148;7.014;2023-05-02T00:29:50;17.37;;;10.83;;
6755;SDS011;3415;51.148;7.014;2023-05-02T00:32:18;15.83;;;11.20;;
6755;SDS011;3415;51.148;7.014;2023-05-02T00:34:45;18.30;;;10.80;;
6755;SDS011;3415;51.148;7.014;2023-05-02T00:37:12;15.43;;;11.20;;
6755;SDS011;3415;51.148;7.014;2023-05-02T00:39:38;19.10;;;10.93;;
6755;SDS011;3415;51.148;7.014;2023-05-02T00:42:05;14.63;;;9.87;;
6755;SDS011;3415;51.148;7.014;2023-05-02T00:44:32;14.20;;;10.00;;
6755;SDS011;3415;51.148;7.014;2023-05-02T00:47:00;19.50;;;12.67;;
6755;SDS011;3415;51.148;7.014;2023-05-02T00:49:27;17.67;;;10.87;;
6755;SDS011;3415;51.148;7.014;2023-05-02T00:51:55;15.10;;;10.23;;
6755;SDS011;3415;51.148;7.014;2023-05-02T00:54:22;20.17;;;12.10;;
6755;SDS011;3415;51.148;7.014;2023-05-02T00:56:48;21.20;;;12.10;;
6755;SDS011;3415;51.148;7.014;2023-05-02T00:59:15;18.73;;;12.87;;
6755;SDS011;3415;51.148;7.014;2023-05-02T01:01:46;25.93;;;13.27;;
6755;SDS011;3415;51.148;7.014;2023-05-02T01:04:22;19.93;;;12.33;;
6755;SDS011;3415;51.148;7.014;2023-05-02T01:07:01;24.20;;;13.80;;
6755;SDS011;3415;51.148;7.014;2023-05-02T01:09:41;25.93;;;14.83;;
6755;SDS011;3415;51.148;7.014;2023-05-02T01:12:21;29.90;;;15.73;;
6755;SDS011;3415;51.148;7.014;2023-05-02T01:14:53;25.53;;;14.10;;
6755;SDS011;3415;51.148;7.014;2023-05-02T01:17:23;22.90;;;15.70;;
6755;SDS011;3415;51.148;7.014;2023-05-02T01:19:56;21.13;;;14.50;;
6755;SDS011;3415;51.148;7.014;2023-05-02T01:22:25;24.77;;;14.50;;
6755;SDS011;3415;51.148;7.014;2023-05-02T01:24:58;33.50;;;16.70;;
6755;SDS011;3415;51.148;7.014;2023-05-02T01:27:32;39.60;;;16.47;;
6755;SDS011;3415;51.148;7.014;2023-05-02T01:30:07;30.77;;;15.30;;
6755;SDS011;3415;51.148;7.014;2023-05-02T01:32:37;31.20;;;16.97;;
6755;SDS011;3415;51.148;7.014;2023-05-02T01:35:05;39.97;;;18.03;;
6755;SDS011;3415;51.148;7.014;2023-05-02T01:37:33;31.53;;;17.40;;
6755;SDS011;3415;51.148;7.014;2023-05-02T01:40:03;37.00;;;19.07;;
6755;SDS011;3415;51.148;7.014;2023-05-02T01:42:32;37.30;;;17.83;;
6755;SDS011;3415;51.148;7.014;2023-05-02T01:45:01;35.30;;;18.40;;
6755;SDS011;3415;51.148;7.014;2023-05-02T01:47:34;41.07;;;18.83;;
6755;SDS011;3415;51.148;7.014;2023-05-02T01:50:02;43.13;;;21.13;;
6755;SDS011;3415;51.148;7.014;2023-05-02T01:52:30;51.33;;;21.87;;
6755;SDS011;3415;51.148;7.014;2023-05-02T01:54:58;46.23;;;22.67;;
6755;SDS011;3415;51.148;7.014;2023-05-02T01:57:26;54.13;;;23.70;;
6755;SDS011;3415;51.148;7.014;2023-05-02T01:59:53;54.23;;;24.87;;
6755;SDS011;3415;51.148;7.014;2023-05-02T02:02:22;55.37;;;24.40;;
6755;SDS011;3415;51.148;7.014;2023-05-02T02:04:53;47.23;;;22.70;;
6755;SDS011;3415;51.148;7.014;2023-05-02T02:07:21;54.83;;;24.90;;
6755;SDS011;3415;51.148;7.014;2023-05-02T02:09:48;59.47;;;27.10;;
6755;SDS011;3415;51.148;7.014;2023-05-02T02:12:16;55.50;;;22.97;;
6755;SDS011;3415;51.148;7.014;2023-05-02T02:14:54;55.37;;;24.40;;
6755;SDS011;3415;51.148;7.014;2023-05-02T02:17:25;63.10;;;25.70;;
6755;SDS011;3415;51.148;7.014;2023-05-02T02:19:57;58.97;;;24.00;;
6755;SDS011;3415;51.148;7.014;2023-05-02T02:22:28;59.67;;;26.30;;
6755;SDS011;3415;51.148;7.014;2023-05-02T02:25:00;58.53;;;23.90;;
6755;SDS011;3415;51.148;7.014;2023-05-02T02:27:29;53.13;;;23.43;;
6755;SDS011;3415;51.148;7.014;2023-05-02T02:29:56;56.47;;;26.00;;
6755;SDS011;3415;51.148;7.014;2023-05-02T02:32:23;67.83;;;25.83;;
6755;SDS011;3415;51.148;7.014;2023-05-02T02:34:49;60.87;;;26.20;;
6755;SDS011;3415;51.148;7.014;2023-05-02T02:37:18;62.97;;;26.80;;
6755;SDS011;3415;51.148;7.014;2023-05-02T02:39:53;56.23;;;24.07;;
6755;SDS011;3415;51.148;7.014;2023-05-02T02:42:27;59.17;;;24.20;;
6755;SDS011;3415;51.148;7.014;2023-05-02T02:45:00;60.90;;;25.60;;
6755;SDS011;3415;51.148;7.014;2023-05-02T02:47:35;56.33;;;23.90;;
6755;SDS011;3415;51.148;7.014;2023-05-02T02:50:10;57.27;;;24.43;;
6755;SDS011;3415;51.148;7.014;2023-05-02T02:52:47;55.70;;;23.50;;
6755;SDS011;3415;51.148;7.014;2023-05-02T02:55:19;53.50;;;23.03;;
6755;SDS011;3415;51.148;7.014;2023-05-02T02:57:57;46.67;;;21.50;;
6755;SDS011;3415;51.148;7.014;2023-05-02T03:00:27;48.53;;;22.50;;
6755;SDS011;3415;51.148;7.014;2023-05-02T03:02:54;46.63;;;20.00;;
6755;SDS011;3415;51.148;7.014;2023-05-02T03:05:22;45.90;;;18.90;;
6755;SDS011;3415;51.148;7.014;2023-05-02T03:07:51;44.43;;;19.83;;
6755;SDS011;3415;51.148;7.014;2023-05-02T03:10:17;52.83;;;21.70;;
6755;SDS011;3415;51.148;7.014;2023-05-02T03:12:46;45.13;;;20.47;;
6755;SDS011;3415;51.148;7.014;2023-05-02T03:15:26;51.70;;;22.23;;
6755;SDS011;3415;51.148;7.014;2023-05-02T03:18:11;45.33;;;18.50;;
6755;SDS011;3415;51.148;7.014;2023-05-02T03:20:38;38.33;;;18.27;;
6755;SDS011;3415;51.148;7.014;2023-05-02T03:23:07;40.47;;;18.03;;
6755;SDS011;3415;51.148;7.014;2023-05-02T03:25:34;39.80;;;18.10;;
6755;SDS011;3415;51.148;7.014;2023-05-02T03:28:01;41.30;;;20.00;;
6755;SDS011;3415;51.148;7.014;2023-05-02T03:30:27;44.87;;;19.80;;
6755;SDS011;3415;51.148;7.014;2023-05-02T03:32:54;36.87;;;18.43;;
6755;SDS011;3415;51.148;7.014;2023-05-02T03:35:21;35.97;;;16.30;;
6755;SDS011;3415;51.148;7.014;2023-05-02T03:37:48;35.10;;;16.53;;
6755;SDS011;3415;51.148;7.014;2023-05-02T03:40:16;39.50;;;17.00;;
6755;SDS011;3415;51.148;7.014;2023-05-02T03:42:45;42.03;;;15.90;;
6755;SDS011;3415;51.148;7.014;2023-05-02T03:45:12;33.53;;;15.43;;
6755;SDS011;3415;51.148;7.014;2023-05-02T03:47:39;41.03;;;18.30;;
6755;SDS011;3415;51.148;7.014;2023-05-02T03:50:06;36.93;;;18.40;;
6755;SDS011;3415;51.148;7.014;2023-05-02T03:52:33;45.37;;;17.07;;
6755;SDS011;3415;51.148;7.014;2023-05-02T03:55:00;40.47;;;16.40;;
6755;SDS011;3415;51.148;7.014;2023-05-02T03:57:30;39.87;;;17.27;;
6755;SDS011;3415;51.148;7.014;2023-05-02T03:59:56;35.90;;;16.07;;
6755;SDS011;3415;51.148;7.014;2023-05-02T04:02:24;35.03;;;15.20;;
6755;SDS011;3415;51.148;7.014;2023-05-02T04:04:51;39.07;;;16.97;;
6755;SDS011;3415;51.148;7.014;2023-05-02T04:07:18;41.67;;;17.53;;
6755;SDS011;3415;51.148;7.014;2023-05-02T04:09:45;40.07;;;16.23;;
6755;SDS011;3415;51.148;7.014;2023-05-02T04:12:14;34.83;;;16.30;;
6755;SDS011;3415;51.148;7.014;2023-05-02T04:14:42;40.77;;;17.90;;
6755;SDS011;3415;51.148;7.014;2023-05-02T04:17:09;42.50;;;16.57;;
6755;SDS011;3415;51.148;7.014;2023-05-02T04:19:35;39.00;;;16.30;;
6755;SDS011;3415;51.148;7.014;2023-05-02T04:22:02;41.33;;;16.33;;
6755;SDS011;3415;51.148;7.014;2023-05-02T04:24:29;43.27;;;17.47;;
6755;SDS011;3415;51.148;7.014;2023-05-02T04:26:56;34.80;;;15.83;;
6755;SDS011;3415;51.148;7.014;2023-05-02T04:29:23;33.87;;;15.80;;
6755;SDS011;3415;51.148;7.014;2023-05-02T04:31:51;41.83;;;19.00;;
6755;SDS011;3415;51.148;7.014;2023-05-02T04:34:18;36.03;;;15.77;;
6755;SDS011;3415;51.148;7.014;2023-05-02T04:36:45;35.40;;;17.37;;
6755;SDS011;3415;51.148;7.014;2023-05-02T04:39:12;35.40;;;16.23;;
6755;SDS011;3415;51.148;7.014;2023-05-02T04:41:39;39.10;;;17.50;;
6755;SDS011;3415;51.148;7.014;2023-05-02T04:44:07;42.37;;;17.63;;
6755;SDS011;3415;51.148;7.014;2023-05-02T04:46:33;41.10;;;15.90;;
6755;SDS011;3415;51.148;7.014;2023-05-02T04:49:02;40.77;;;16.67;;
6755;SDS011;3415;51.148;7.014;2023-05-02T04:51:28;37.43;;;16.70;;
6755;SDS011;3415;51.148;7.014;2023-05-02T04:53:55;35.67;;;16.43;;
6755;SDS011;3415;51.148;7.014;2023-05-02T04:56:22;35.33;;;15.63;;
6755;SDS011;3415;51.148;7.014;2023-05-02T04:58:49;33.93;;;14.40;;
6755;SDS011;3415;51.148;7.014;2023-05-02T05:01:16;31.60;;;12.77;;
6755;SDS011;3415;51.148;7.014;2023-05-02T05:03:43;32.53;;;14.83;;
6755;SDS011;3415;51.148;7.014;2023-05-02T05:06:11;31.90;;;14.77;;
6755;SDS011;3415;51.148;7.014;2023-05-02T05:08:38;35.60;;;13.27;;
6755;SDS011;3415;51.148;7.014;2023-05-02T05:11:05;31.60;;;15.27;;
6755;SDS011;3415;51.148;7.014;2023-05-02T05:13:31;26.80;;;13.10;;
6755;SDS011;3415;51.148;7.014;2023-05-02T05:15:58;26.27;;;12.20;;
6755;SDS011;3415;51.148;7.014;2023-05-02T05:18:26;23.90;;;11.00;;
6755;SDS011;3415;51.148;7.014;2023-05-02T05:20:52;26.90;;;11.13;;
6755;SDS011;3415;51.148;7.014;2023-05-02T05:23:21;25.13;;;11.70;;
6755;SDS011;3415;51.148;7.014;2023-05-02T05:25:47;26.03;;;12.03;;
6755;SDS011;3415;51.148;7.014;2023-05-02T05:28:14;24.80;;;11.40;;
6755;SDS011;3415;51.148;7.014;2023-05-02T05:30:42;23.50;;;11.50;;
6755;SDS011;3415;51.148;7.014;2023-05-02T05:33:09;29.90;;;12.40;;
6755;SDS011;3415;51.148;7.014;2023-05-02T05:35:36;24.70;;;11.27;;
6755;SDS011;3415;51.148;7.014;2023-05-02T05:38:02;22.00;;;10.43;;
6755;SDS011;3415;51.148;7.014;2023-05-02T05:40:30;24.97;;;9.70;;
6755;SDS011;3415;51.148;7.014;2023-05-02T05:42:57;24.73;;;11.20;;
6755;SDS011;3415;51.148;7.014;2023-05-02T05:45:24;23.53;;;10.27;;
6755;SDS011;3415;51.148;7.014;2023-05-02T05:47:52;29.23;;;11.53;;
6755;SDS011;3415;51.148;7.014;2023-05-02T05:50:19;24.00;;;12.50;;
6755;SDS011;3415;51.148;7.014;2023-05-02T05:52:46;25.33;;;11.77;;
6755;SDS011;3415;51.148;7.014;2023-05-02T05:55:13;22.50;;;11.47;;
6755;SDS011;3415;51.148;7.014;2023-05-02T05:57:41;22.70;;;11.33;;
6755;SDS011;3415;51.148;7.014;2023-05-02T06:00:08;22.77;;;10.77;;
6755;SDS011;3415;51.148;7.014;2023-05-02T06:02:36;22.47;;;11.23;;
6755;SDS011;3415;51.148;7.014;2023-05-02T06:05:03;22.30;;;10.53;;
6755;SDS011;3415;51.148;7.014;2023-05-02T06:07:30;22.90;;;11.93;;
6755;SDS011;3415;51.148;7.014;2023-05-02T06:09:57;28.80;;;12.40;;
6755;SDS011;3415;51.148;7.014;2023-05-02T06:12:24;26.80;;;12.10;;
6755;SDS011;3415;51.148;7.014;2023-05-02T06:14:52;28.70;;;12.40;;
6755;SDS011;3415;51.148;7.014;2023-05-02T06:17:19;28.70;;;11.30;;
6755;SDS011;3415;51.148;7.014;2023-05-02T06:19:46;27.73;;;11.70;;
6755;SDS011;3415;51.148;7.014;2023-05-02T06:22:13;24.97;;;11.80;;
6755;SDS011;3415;51.148;7.014;2023-05-02T06:24:40;21.73;;;10.27;;
6755;SDS011;3415;51.148;7.014;2023-05-02T06:27:06;28.40;;;11.97;;
6755;SDS011;3415;51.148;7.014;2023-05-02T06:29:33;25.77;;;11.83;;
6755;SDS011;3415;51.148;7.014;2023-05-02T06:32:02;26.03;;;10.50;;
6755;SDS011;3415;51.148;7.014;2023-05-02T06:34:30;30.20;;;13.57;;
6755;SDS011;3415;51.148;7.014;2023-05-02T06:36:57;26.03;;;11.67;;
6755;SDS011;3415;51.148;7.014;2023-05-02T06:39:24;31.37;;;13.10;;
6755;SDS011;3415;51.148;7.014;2023-05-02T06:41:51;25.30;;;13.23;;
6755;SDS011;3415;51.148;7.014;2023-05-02T06:44:22;26.47;;;12.90;;
6755;SDS011;3415;51.148;7.014;2023-05-02T06:46:49;22.90;;;12.73;;
6755;SDS011;3415;51.148;7.014;2023-05-02T06:49:17;22.07;;;10.23;;
6755;SDS011;3415;51.148;7.014;2023-05-02T06:51:44;21.53;;;10.00;;
6755;SDS011;3415;51.148;7.014;2023-05-02T06:54:11;19.33;;;10.07;;
6755;SDS011;3415;51.148;7.014;2023-05-02T06:56:38;15.90;;;8.20;;
6755;SDS011;3415;51.148;7.014;2023-05-02T06:59:06;14.67;;;8.27;;
6755;SDS011;3415;51.148;7.014;2023-05-02T07:01:33;12.60;;;6.50;;
6755;SDS011;3415;51.148;7.014;2023-05-02T07:04:00;9.00;;;5.70;;
6755;SDS011;3415;51.148;7.014;2023-05-02T07:06:29;15.70;;;6.33;;
6755;SDS011;3415;51.148;7.014;2023-05-02T07:08:56;11.83;;;5.43;;
6755;SDS011;3415;51.148;7.014;2023-05-02T07:11:23;11.13;;;5.50;;
6755;SDS011;3415;51.148;7.014;2023-05-02T07:13:52;10.03;;;4.83;;
6755;SDS011;3415;51.148;7.014;2023-05-02T07:16:18;10.07;;;5.30;;
6755;SDS011;3415;51.148;7.014;2023-05-02T07:18:45;11.97;;;4.50;;
6755;SDS011;3415;51.148;7.014;2023-05-02T07:21:12;7.13;;;4.50;;
6755;SDS011;3415;51.148;7.014;2023-05-02T07:23:41;13.07;;;4.60;;
6755;SDS011;3415;51.148;7.014;2023-05-02T07:26:08;7.33;;;4.43;;
6755;SDS011;3415;51.148;7.014;2023-05-02T07:28:35;18.30;;;4.63;;
6755;SDS011;3415;51.148;7.014;2023-05-02T07:31:02;15.07;;;4.57;;
6755;SDS011;3415;51.148;7.014;2023-05-02T07:33:29;7.40;;;3.80;;
6755;SDS011;3415;51.148;7.014;2023-05-02T07:35:56;3.83;;;3.30;;
6755;SDS011;3415;51.148;7.014;2023-05-02T07:38:23;8.13;;;4.13;;
6755;SDS011;3415;51.148;7.014;2023-05-02T07:40:51;7.10;;;3.60;;
6755;SDS011;3415;51.148;7.014;2023-05-02T07:43:18;4.27;;;3.10;;
6755;SDS011;3415;51.148;7.014;2023-05-02T07:45:45;6.80;;;2.97;;
6755;SDS011;3415;51.148;7.014;2023-05-02T07:48:12;7.60;;;4.57;;
6755;SDS011;3415;51.148;7.014;2023-05-02T07:50:38;4.77;;;3.17;;
6755;SDS011;3415;51.148;7.014;2023-05-02T07:53:05;4.70;;;3.30;;
6755;SDS011;3415;51.148;7.014;2023-05-02T07:55:32;4.10;;;2.93;;
6755;SDS011;3415;51.148;7.014;2023-05-02T07:58:00;3.43;;;2.63;;
6755;SDS011;3415;51.148;7.014;2023-05-02T08:00:28;7.30;;;3.43;;
6755;SDS011;3415;51.148;7.014;2023-05-02T08:02:55;7.93;;;2.80;;
6755;SDS011;3415;51.148;7.014;2023-05-02T08:05:22;3.90;;;3.17;;
6755;SDS011;3415;51.148;7.014;2023-05-02T08:07:49;6.37;;;3.63;;
6755;SDS011;3415;51.148;7.014;2023-05-02T08:10:16;5.50;;;3.80;;
6755;SDS011;3415;51.148;7.014;2023-05-02T08:12:43;4.90;;;3.13;;
6755;SDS011;3415;51.148;7.014;2023-05-02T08:15:11;5.77;;;3.47;;
6755;SDS011;3415;51.148;7.014;2023-05-02T08:17:38;8.00;;;5.47;;
6755;SDS011;3415;51.148;7.014;2023-05-02T08:20:06;6.17;;;4.93;;
6755;SDS011;3415;51.148;7.014;2023-05-02T08:22:33;14.23;;;8.77;;
6755;SDS011;3415;51.148;7.014;2023-05-02T08:25:00;12.13;;;7.60;;
6755;SDS011;3415;51.148;7.014;2023-05-02T08:27:27;12.50;;;6.20;;
6755;SDS011;3415;51.148;7.014;2023-05-02T08:29:53;12.07;;;5.23;;
6755;SDS011;3415;51.148;7.014;2023-05-02T08:32:22;8.40;;;3.73;;
6755;SDS011;3415;51.148;7.014;2023-05-02T08:34:48;6.00;;;3.30;;
6755;SDS011;3415;51.148;7.014;2023-05-02T08:37:15;8.97;;;3.73;;
6755;SDS011;3415;51.148;7.014;2023-05-02T08:39:42;5.03;;;2.60;;
6755;SDS011;3415;51.148;7.014;2023-05-02T08:42:09;5.80;;;2.50;;
6755;SDS011;3415;51.148;7.014;2023-05-02T08:44:36;4.17;;;2.50;;
6755;SDS011;3415;51.148;7.014;2023-05-02T08:47:02;2.50;;;2.10;;
6755;SDS011;3415;51.148;7.014;2023-05-02T08:49:32;2.57;;;2.23;;
6755;SDS011;3415;51.148;7.014;2023-05-02T08:52:01;4.83;;;2.77;;
6755;SDS011;3415;51.148;7.014;2023-05-02T08:54:30;3.80;;;2.60;;
6755;SDS011;3415;51.148;7.014;2023-05-02T08:56:58;2.90;;;1.90;;
6755;SDS011;3415;51.148;7.014;2023-05-02T08:59:27;3.93;;;2.10;;
6755;SDS011;3415;51.148;7.014;2023-05-02T09:01:58;3.70;;;2.23;;
6755;SDS011;3415;51.148;7.014;2023-05-02T09:04:30;1.93;;;1.70;;
6755;SDS011;3415;51.148;7.014;2023-05-02T09:07:00;1.50;;;1.40;;
6755;SDS011;3415;51.148;7.014;2023-05-02T09:09:27;2.53;;;1.90;;
6755;SDS011;3415;51.148;7.014;2023-05-02T09:11:55;1.70;;;1.60;;
6755;SDS011;3415;51.148;7.014;2023-05-02T09:14:22;4.93;;;2.10;;
6755;SDS011;3415;51.148;7.014;2023-05-02T09:16:49;2.90;;;1.90;;
6755;SDS011;3415;51.148;7.014;2023-05-02T09:19:22;8.57;;;2.40;;
6755;SDS011;3415;51.148;7.014;2023-05-02T09:21:51;5.23;;;2.97;;
6755;SDS011;3415;51.148;7.014;2023-05-02T09:24:24;3.10;;;1.90;;
6755;SDS011;3415;51.148;7.014;2023-05-02T09:26:55;5.80;;;3.10;;
6755;SDS011;3415;51.148;7.014;2023-05-02T09:29:23;5.43;;;3.13;;
6755;SDS011;3415;51.148;7.014;2023-05-02T09:31:51;7.03;;;3.40;;
6755;SDS011;3415;51.148;7.014;2023-05-02T09:34:18;4.80;;;2.87;;
6755;SDS011;3415;51.148;7.014;2023-05-02T09:36:46;5.67;;;3.03;;
6755;SDS011;3415;51.148;7.014;2023-05-02T09:39:18;7.30;;;2.77;;
6755;SDS011;3415;51.148;7.014;2023-05-02T09:41:47;4.10;;;2.73;;
6755;SDS011;3415;51.148;7.014;2023-05-02T09:44:15;7.93;;;2.20;;
6755;SDS011;3415;51.148;7.014;2023-05-02T09:46:43;2.90;;;2.10;;
6755;SDS011;3415;51.148;7.014;2023-05-02T09:49:12;2.67;;;2.10;;
6755;SDS011;3415;51.148;7.014;2023-05-02T09:51:42;2.17;;;1.57;;
6755;SDS011;3415;51.148;7.014;2023-05-02T09:54:10;2.60;;;1.70;;
6755;SDS011;3415;51.148;7.014;2023-05-02T09:59:23;3.03;;;2.00;;
6755;SDS011;3415;51.148;7.014;2023-05-02T10:01:54;3.20;;;2.30;;
6755;SDS011;3415;51.148;7.014;2023-05-02T10:04:22;4.50;;;2.50;;
6755;SDS011;3415;51.148;7.014;2023-05-02T10:06:50;4.40;;;3.00;;
6755;SDS011;3415;51.148;7.014;2023-05-02T10:09:18;3.60;;;2.23;;
6755;SDS011;3415;51.148;7.014;2023-05-02T10:11:46;3.70;;;2.87;;
6755;SDS011;3415;51.148;7.014;2023-05-02T10:14:18;6.17;;;2.97;;
6755;SDS011;3415;51.148;7.014;2023-05-02T10:16:50;4.47;;;3.30;;
6755;SDS011;3415;51.148;7.014;2023-05-02T10:19:22;3.83;;;2.57;;
6755;SDS011;3415;51.148;7.014;2023-05-02T10:21:52;3.27;;;2.80;;
6755;SDS011;3415;51.148;7.014;2023-05-02T10:24:21;3.50;;;3.03;;
6755;SDS011;3415;51.148;7.014;2023-05-02T10:26:49;5.97;;;3.90;;
6755;SDS011;3415;51.148;7.014;2023-05-02T10:29:19;7.30;;;3.87;;
6755;SDS011;3415;51.148;7.014;2023-05-02T10:31:46;4.57;;;3.37;;
6755;SDS011;3415;51.148;7.014;2023-05-02T10:34:15;10.93;;;4.10;;
6755;SDS011;3415;51.148;7.014;2023-05-02T10:36:44;6.27;;;3.87;;
6755;SDS011;3415;51.148;7.014;2023-05-02T10:39:11;5.53;;;3.53;;
6755;SDS011;3415;51.148;7.014;2023-05-02T10:41:38;6.83;;;3.60;;
6755;SDS011;3415;51.148;7.014;2023-05-02T10:44:06;5.33;;;3.50;;
6755;SDS011;3415;51.148;7.014;2023-05-02T10:46:35;6.00;;;3.57;;
6755;SDS011;3415;51.148;7.014;2023-05-02T10:49:05;3.53;;;2.93;;
6755;SDS011;3415;51.148;7.014;2023-05-02T10:51:33;5.37;;;4.20;;
6755;SDS011;3415;51.148;7.014;2023-05-02T10:54:17;4.00;;;3.60;;
6755;SDS011;3415;51.148;7.014;2023-05-02T10:57:05;5.40;;;2.87;;
6755;SDS011;3415;51.148;7.014;2023-05-02T10:59:34;6.27;;;3.50;;
6755;SDS011;3415;51.148;7.014;2023-05-02T11:02:04;4.87;;;3.83;;
6755;SDS011;3415;51.148;7.014;2023-05-02T11:04:58;5.27;;;3.90;;
6755;SDS011;3415;51.148;7.014;2023-05-02T11:07:27;3.97;;;3.53;;
6755;SDS011;3415;51.148;7.014;2023-05-02T11:12:51;6.80;;;3.63;;
6755;SDS011;3415;51.148;7.014;2023-05-02T11:18:22;3.60;;;3.30;;
6755;SDS011;3415;51.148;7.014;2023-05-02T11:20:49;4.07;;;3.30;;
6755;SDS011;3415;51.148;7.014;2023-05-02T11:23:19;5.63;;;3.47;;
6755;SDS011;3415;51.148;7.014;2023-05-02T11:25:50;5.17;;;3.60;;
6755;SDS011;3415;51.148;7.014;2023-05-02T11:31:07;3.60;;;2.80;;
6755;SDS011;3415;51.148;7.014;2023-05-02T11:33:36;3.50;;;3.00;;
6755;SDS011;3415;51.148;7.014;2023-05-02T11:36:03;3.37;;;3.00;;
6755;SDS011;3415;51.148;7.014;2023-05-02T11:38:39;5.77;;;2.67;;
6755;SDS011;3415;51.148;7.014;2023-05-02T11:41:06;4.40;;;3.03;;
6755;SDS011;3415;51.148;7.014;2023-05-02T11:43:33;5.17;;;3.30;;
6755;SDS011;3415;51.148;7.014;2023-05-02T11:45:59;3.97;;;2.50;;
6755;SDS011;3415;51.148;7.014;2023-05-02T11:48:29;15.80;;;4.30;;
6755;SDS011;3415;51.148;7.014;2023-05-02T11:50:58;7.47;;;3.00;;
6755;SDS011;3415;51.148;7.014;2023-05-02T11:53:28;4.60;;;3.00;;
6755;SDS011;3415;51.148;7.014;2023-05-02T11:55:56;3.80;;;2.83;;
6755;SDS011;3415;51.148;7.014;2023-05-02T11:58:25;8.73;;;3.17;;
6755;SDS011;3415;51.148;7.014;2023-05-02T12:00:53;8.60;;;4.43;;
6755;SDS011;3415;51.148;7.014;2023-05-02T12:03:28;5.13;;;3.90;;
6755;SDS011;3415;51.148;7.014;2023-05-02T12:05:55;12.13;;;4.90;;
6755;SDS011;3415;51.148;7.014;2023-05-02T12:08:33;9.93;;;4.67;;
6755;SDS011;3415;51.148;7.014;2023-05-02T12:11:00;5.00;;;4.33;;
6755;SDS011;3415;51.148;7.014;2023-05-02T12:13:27;6.47;;;3.47;;
6755;SDS011;3415;51.148;7.014;2023-05-02T12:15:54;4.17;;;2.93;;
6755;SDS011;3415;51.148;7.014;2023-05-02T12:18:23;5.63;;;3.50;;
6755;SDS011;3415;51.148;7.014;2023-05-02T12:20:52;5.60;;;3.40;;
6755;SDS011;3415;51.148;7.014;2023-05-02T12:23:22;5.13;;;3.60;;
6755;SDS011;3415;51.148;7.014;2023-05-02T12:25:51;3.90;;;3.50;;
6755;SDS011;3415;51.148;7.014;2023-05-02T12:28:18;3.70;;;3.27;;
6755;SDS011;3415;51.148;7.014;2023-05-02T12:30:47;6.17;;;4.10;;
6755;SDS011;3415;51.148;7.014;2023-05-02T12:33:15;5.40;;;3.70;;
6755;SDS011;3415;51.148;7.014;2023-05-02T12:35:43;7.03;;;4.00;;
6755;SDS011;3415;51.148;7.014;2023-05-02T12:38:12;8.13;;;3.63;;
6755;SDS011;3415;51.148;7.014;2023-05-02T12:40:48;6.63;;;3.73;;
6755;SDS011;3415;51.148;7.014;2023-05-02T12:43:16;11.80;;;4.20;;
6755;SDS011;3415;51.148;7.014;2023-05-02T12:45:43;7.17;;;4.07;;
6755;SDS011;3415;51.148;7.014;2023-05-02T12:48:19;6.93;;;3.90;;
6755;SDS011;3415;51.148;7.014;2023-05-02T12:50:50;8.83;;;5.00;;
6755;SDS011;3415;51.148;7.014;2023-05-02T12:53:17;7.23;;;4.13;;
6755;SDS011;3415;51.148;7.014;2023-05-02T12:56:05;9.53;;;4.70;;
6755;SDS011;3415;51.148;7.014;2023-05-02T12:58:39;7.20;;;5.10;;
6755;SDS011;3415;51.148;7.014;2023-05-02T13:01:08;5.23;;;4.73;;
6755;SDS011;3415;51.148;7.014;2023-05-02T13:03:35;9.53;;;5.10;;
6755;SDS011;3415;51.148;7.014;2023-05-02T13:06:02;18.10;;;5.77;;
6755;SDS011;3415;51.148;7.014;2023-05-02T13:08:30;10.13;;;6.20;;
6755;SDS011;3415;51.148;7.014;2023-05-02T13:10:58;7.70;;;5.43;;
6755;SDS011;3415;51.148;7.014;2023-05-02T13:13:26;8.30;;;4.87;;
6755;SDS011;3415;51.148;7.014;2023-05-02T13:15:53;5.70;;;5.03;;
6755;SDS011;3415;51.148;7.014;2023-05-02T13:18:20;6.37;;;4.60;;
6755;SDS011;3415;51.148;7.014;2023-05-02T13:20:47;10.60;;;4.73;;
6755;SDS011;3415;51.148;7.014;2023-05-02T13:23:14;8.37;;;5.60;;
6755;SDS011;3415;51.148;7.014;2023-05-02T13:25:41;9.00;;;6.00;;
6755;SDS011;3415;51.148;7.014;2023-05-02T13:28:08;5.70;;;4.33;;
6755;SDS011;3415;51.148;7.014;2023-05-02T13:30:36;6.50;;;4.70;;
6755;SDS011;3415;51.148;7.014;2023-05-02T13:33:03;12.00;;;5.63;;
6755;SDS011;3415;51.148;7.014;2023-05-02T13:35:30;8.63;;;5.30;;
6755;SDS011;3415;51.148;7.014;2023-05-02T13:37:57;5.90;;;4.57;;
6755;SDS011;3415;51.148;7.014;2023-05-02T13:40:24;5.27;;;4.20;;
6755;SDS011;3415;51.148;7.014;2023-05-02T13:42:51;5.60;;;4.30;;
6755;SDS011;3415;51.148;7.014;2023-05-02T13:45:17;7.73;;;4.37;;
6755;SDS011;3415;51.148;7.014;2023-05-02T13:47:46;11.23;;;6.17;;
6755;SDS011;3415;51.148;7.014;2023-05-02T13:50:13;8.77;;;4.87;;
6755;SDS011;3415;51.148;7.014;2023-05-02T13:52:40;10.50;;;5.50;;
6755;SDS011;3415;51.148;7.014;2023-05-02T13:55:07;7.67;;;4.70;;
6755;SDS011;3415;51.148;7.014;2023-05-02T13:57:34;10.37;;;4.13;;
6755;SDS011;3415;51.148;7.014;2023-05-02T14:00:01;6.33;;;5.37;;
6755;SDS011;3415;51.148;7.014;2023-05-02T14:02:29;4.87;;;4.40;;
6755;SDS011;3415;51.148;7.014;2023-05-02T14:04:57;5.07;;;4.07;;
6755;SDS011;3415;51.148;7.014;2023-05-02T14:07:24;7.40;;;5.13;;
6755;SDS011;3415;51.148;7.014;2023-05-02T14:09:50;5.47;;;5.07;;
6755;SDS011;3415;51.148;7.014;2023-05-02T14:12:17;7.00;;;4.97;;
6755;SDS011;3415;51.148;7.014;2023-05-02T14:14:44;5.47;;;4.03;;
6755;SDS011;3415;51.148;7.014;2023-05-02T14:17:11;6.83;;;3.40;;
6755;SDS011;3415;51.148;7.014;2023-05-02T14:19:38;4.53;;;3.50;;
6755;SDS011;3415;51.148;7.014;2023-05-02T14:22:07;9.47;;;3.80;;
6755;SDS011;3415;51.148;7.014;2023-05-02T14:24:33;6.40;;;3.80;;
6755;SDS011;3415;51.148;7.014;2023-05-02T14:27:00;5.97;;;3.97;;
6755;SDS011;3415;51.148;7.014;2023-05-02T14:29:28;4.87;;;3.60;;
6755;SDS011;3415;51.148;7.014;2023-05-02T14:31:55;5.13;;;3.60;;
6755;SDS011;3415;51.148;7.014;2023-05-02T14:34:22;5.53;;;3.37;;
6755;SDS011;3415;51.148;7.014;2023-05-02T14:36:51;3.10;;;2.87;;
6755;SDS011;3415;51.148;7.014;2023-05-02T14:39:19;3.10;;;2.73;;
6755;SDS011;3415;51.148;7.014;2023-05-02T14:41:45;12.43;;;4.80;;
6755;SDS011;3415;51.148;7.014;2023-05-02T14:44:12;3.57;;;3.00;;
6755;SDS011;3415;51.148;7.014;2023-05-02T14:46:39;4.33;;;2.57;;
6755;SDS011;3415;51.148;7.014;2023-05-02T14:49:06;5.73;;;3.13;;
6755;SDS011;3415;51.148;7.014;2023-05-02T14:51:36;4.63;;;3.50;;
6755;SDS011;3415;51.148;7.014;2023-05-02T14:54:03;4.67;;;4.10;;
6755;SDS011;3415;51.148;7.014;2023-05-02T14:56:32;4.73;;;3.50;;
6755;SDS011;3415;51.148;7.014;2023-05-02T14:58:58;4.13;;;3.30;;
6755;SDS011;3415;51.148;7.014;2023-05-02T15:01:25;4.60;;;3.27;;
6755;SDS011;3415;51.148;7.014;2023-05-02T15:03:53;3.63;;;3.30;;
6755;SDS011;3415;51.148;7.014;2023-05-02T15:06:20;8.43;;;3.40;;
6755;SDS011;3415;51.148;7.014;2023-05-02T15:08:46;2.40;;;2.17;;
6755;SDS011;3415;51.148;7.014;2023-05-02T15:11:14;7.03;;;2.77;;
6755;SDS011;3415;51.148;7.014;2023-05-02T15:13:42;3.90;;;2.97;;
6755;SDS011;3415;51.148;7.014;2023-05-02T15:16:09;3.40;;;2.70;;
6755;SDS011;3415;51.148;7.014;2023-05-02T15:18:36;3.57;;;2.50;;
6755;SDS011;3415;51.148;7.014;2023-05-02T15:21:04;6.97;;;2.80;;